Wetterstation Rottenburg Seebronn / 442m msl / http://mut-lambrecht.de
LETZTE AKTUALISIERUNG UM: 09:05 DATUM: März 23 2017, time of next update: 09:10
Aktuelles WetterClear Aktuelle Temperatur 7.6°C (45.7°F), Apparent temp 6.8°C
Höchsttemperatur (seit Mitternacht)7.6°C um: 09:03 Tiefsttemperatur (seit Mitternacht)4.6°C um: 06:05
Windgeschwindigkeit (10 Minuten )1.7 kmh (0.9 kts) Windrichtung (Dir) (10 Minuten )SE (139°)
Windchill Temperatur 7.6°C Windspitzen (letzte Std)8.0 kmh (4.3 kts) um: 08:35
Windspitzen (seit Mitternacht)14.8 kmh (8.0 kts) um: 00:47 Höchstes Windmittel / Minute (seit Mitternacht)6.7 kmh (3.6 kts) um: 00:49
Regenmenge (letzte Std)0.0 mm Regenmenge (seit Mitternacht)0.0 mm (0.00 in.)---
Regenmenge diesen Monat 32.4 mm (1.28 in.) Regenmenge seit Jahresbeginn 79.5 mm (3.13 in.)
Höchste Regenmenge pro Minute (letzte Std)0.0 mm/min Höchste Regenmenge pro Stunde (letzte 6 Std)0.0 mm/stunde
Regenmenge Gestern 4.9 mm Taupunkt 5.1°C (Wet Bulb :6.5°C )
Luftfeuchtigkeit 84 %, Humidex 6.9°C Aktueller Luftdruck (auf Meereshöhe bezogen)1013.7 hPa
Luftdrucktendenz +0.5 hPa (letzte Std) Trend (letzte 1 Std)gleichbleibend
Luftdrucktendenz (letzte 12 Std)+1.6 hPa Luftdrucktendenz (letzte 6 Std)+0.8 hPa



Weather report/warning/Metars

Stuttgart-Echterdingen, Germany (EDDS) 48-41N 009-13E 391M
Mar 23, 2017 - 03:50 AM EDT / 2017.03.23 0750 UTC
Wind: Variable at 2 MPH (2 KT):0
Visibility: 4 mile(s):0
Temperature: 48 F (9 C)
Dew Point: 44 F (7 C)
Relative Humidity: 87%
Pressure (altimeter): 29.94 in. Hg (1014 hPa)
ob: EDDS 230750Z VRB02KT 8000 NSC 09/07 Q1014 NOSIG
cycle: 8
Karlsruhe, Baden Wurttemberg, Germany (EDSB) 48-46-43N 008-04-47E
Mar 23, 2017 - 03:50 AM EDT / 2017.03.23 0750 UTC
Wind: from the NNE (030 degrees) at 5 MPH (4 KT) (direction variable):0
Visibility: 5 mile(s):0
Temperature: 44 F (7 C)
Dew Point: 42 F (6 C)
Relative Humidity: 93%
Pressure (altimeter): 29.94 in. Hg (1014 hPa)
ob: EDSB 230750Z 03004KT 350V060 9000 NSC 07/06 Q1014
cycle: 8
Lahr, CAN-AFB, Germany (EDTL) 48-22-09N 007-49-40E
Mar 22, 2017 - 02:50 PM EDT / 2017.03.22 1850 UTC
Wind: from the N (010 degrees) at 6 MPH (5 KT):0
Visibility: greater than 7 mile(s):0
Sky conditions: mostly cloudy
Temperature: 46 F (8 C)
Dew Point: 42 F (6 C)
Relative Humidity: 87%
Pressure (altimeter): 29.88 in. Hg (1012 hPa)
ob: EDTL 221850Z 01005KT 9999 BKN026 08/06 Q1012
cycle: 19
Laupheim, Germany (ETHL) 48-13N 009-55E 550M
Mar 23, 2017 - 03:20 AM EDT / 2017.03.23 0720 UTC
Wind: Variable at 2 MPH (2 KT):0
Visibility: 3 mile(s):0
Sky conditions: mostly cloudy
Temperature: 42 F (6 C)
Dew Point: 42 F (6 C)
Relative Humidity: 100%
Pressure (altimeter): 29.94 in. Hg (1014 hPa)
ob: ETHL 230720Z VRB02KT 6000 BKN006 06/06 Q1014 YLO YLO BECMG GRN
cycle: 7


Klicken Sie hier, um eine Übersicht der Durchschnitts- u. Extremwerte für den Monat zu erhalten


Die Datenübertragung findet alle 5 Minuten statt.

Drücken Sie gegebenenfalls auf "Aktualisieren" in Ihrem Browser, um die aktuellsten Daten zu erhalten.

Created by "Weather Display" software version 10.37S at this start time/date 23:14:12 18.10.2016